Terminal Aerodrome Forecast
Issued by NWS Grand Forks, ND

Home | Current Version | Previous Version | Graphics & Text | Print | Product List | Glossary On
Versions: 1 2 3 4 5 6 7 8 9 10 11 12 13 14
000
FTUS43 KFGF 301727
TAFGFK
TAF
KGFK 301727Z 3018/0118 35013KT 3SM -SN BR OVC010
     FM010300 35011KT 4SM -FZDZ OVC010
     FM011100 34009KT P6SM OVC008
     FM011600 35010KT P6SM OVC010=

USA.gov is the U.S. government's official web portal to all federal, state and local government web resources and services.